Tiempo atmosférico en la estación meteorológica de Castellote, Teruel (755 m.)



Fecha
DESCASC
Temp. máxima en grados centígrados (hora)
DESCASC
Temp. mínima en grados centígrados (hora)
DESCASC
Temp. media en grados centígrados
DESCASC
Racha de viento máxima en m/sg (hora)
DESCASC
Velocidad máxima media en intervalos de 10 minutos(hora)
DESCASC
Precipitaciones diarias en mm
DESCASC
Precipitaciones de 00:00 a 06:00 en mm
DESCASC
Precipitaciones de 06:00 a 12:00 en mm
DESCASC
Precipitaciones de 12:00 a 18:00 en mm
DESCASC
Precipitaciones de 18:00 a 24:00 en mm
DESCASC
19-09-2019 27.2 (15:10) 14.1 (07:20) 20.7 9.17 (17:00) 4.44 (17:30) 0 0 0 0 0
18-09-2019 26.4 (13:30) 15.4 (08:10) 20.9 11.94 (16:00) 5.28 (16:00) 5.2 0 0 5.2 0
17-09-2019 29.5 (16:00) 15.5 (00:00) 22.5 21.67 (22:40) 15.28 (22:40) 0 0 0 0 0
16-09-2019 28 (18:00) 17.1 (00:00) 22.6 9.44 (15:30) 4.44 (14:50) 0 0 0 0 0
15-09-2019 26.4 (15:50) 15.3 (00:00) 20.8 9.72 (15:50) 6.67 (16:40) 0 0 0 0 0
14-09-2019 23.8 (17:40) 12.1 (00:00) 17.9 11.39 (16:30) 6.39 (16:30) 0 0 0 0 0
13-09-2019 22.2 (17:00) 14 (00:00) 18.1 9.17 (12:30) 5 (14:20) 4 0 0 0.2 3.8
12-09-2019 24.4 (17:20) 11.7 (00:00) 18 8.33 (19:10) 4.17 (14:40) 0 0 0 0 0
11-09-2019 17.9 (19:40) 10.9 (00:00) 14.4 17.5 (10:40) 10 (10:50) 7.2 0.8 1.8 4.6 0
10-09-2019 19.8 (00:00) 11.2 (19:20) 15.5 18.33 (16:30) 9.17 (16:10) 4.4 0 0 0 4.4
09-09-2019 27.3 (16:50) 12.1 (07:50) 19.7 10.28 (23:40) 7.5 (23:40) 0 0 0 0 0
08-09-2019 25.1 (16:30) 12.7 (00:00) 18.9 10.83 (01:20) 7.5 (01:20) 0 0 0 0 0
07-09-2019 23.2 (17:40) 11.5 (00:00) 17.4 12.5 (01:10) 7.22 (15:40) 0 0 0 0 0
06-09-2019 24.4 (17:30) 10.9 (00:00) 17.6 13.61 (23:00) 8.33 (23:10) 0 0 0 0 0
05-09-2019 22.3 (16:50) 13.5 (00:00) 17.9 16.11 (19:30) 6.67 (15:00) 0 0 0 0 0
04-09-2019 28.8 (16:50) 15.4 (00:00) 22.1 16.67 (22:50) 7.78 (23:00) 0 0 0 0 0
03-09-2019 26.7 (15:50) 12.2 (00:00) 19.5 11.39 (00:10) 6.39 (00:30) 0 0 0 0 0
02-09-2019 25.4 (17:20) 14.7 (00:00) 20 11.94 (03:20) 6.67 (00:40) 1.2 1.2 0 0 0
01-09-2019 28.5 (15:10) 18.3 (00:00) 23.4 17.22 (23:10) 11.11 (23:10) 1.6 0 0 0 1.6
31-08-2019 33.8 (16:10) 18.1 (00:00) 25.9 8.61 (15:10) 5 (16:40) 0 0 0 0 0
30-08-2019 32.6 (16:20) 18.3 (00:00) 25.4 10.83 (15:10) 5.56 (18:20) 0 0 0 0 0
29-08-2019 30.7 (17:10) 18.2 (00:00) 24.5 9.72 (15:30) 4.44 (15:40) 0 0 0 0 0
28-08-2019 29.2 (17:50) 15.3 (00:00) 22.3 9.72 (15:30) 4.44 (15:20) 0 0 0 0 0
27-08-2019 25 (18:10) 14.4 (00:00) 19.7 12.22 (05:20) 6.94 (18:20) 4.2 4.2 0 0 0
26-08-2019 27.6 (15:40) 17.4 (00:00) 22.5 11.94 (18:30) 6.11 (22:00) 0 0 0 0 0
25-08-2019 32.1 (14:20) 17.2 (00:00) 24.6 10.56 (16:20) 5.83 (16:10) 0 0 0 0 0
24-08-2019 32.2 (16:30) 16.2 (00:00) 24.2 8.61 (18:40) 5.83 (18:40) 0 0 0 0 0
23-08-2019 30.7 (15:30) 15.9 (00:00) 23.3 9.44 (16:40) 5.83 (16:40) 0 0 0 0 0

Gráficas

Temp. máximas Temp. mínimas Temp. medias Precipitaciones Rachas de viento máximas Velocidades máximas media en intervalos de 10 minutos

Datos horarios

Fecha y hora oficial Temperatura (ºC) Velocidad del viento (km/h) Dirección del viento Racha (km/h) Dirección de racha Precipitación (mm) Presión (hPa) Tendencia (hPa) Humedad (%)
2019-09-21 23:00:00 19.7 6 Sur 14 Sur 0 -- -- 76
2019-09-21 22:00:00 19.9 5 Sur 11 Sudeste 0 -- -- 77
2019-09-21 21:00:00 20.2 5 Sudeste 15 Sur 0 -- -- 75
2019-09-21 20:00:00 21.8 2 Nordeste 17 Nordeste 0 -- -- 65
2019-09-21 19:00:00 23 12 Nordeste 27 Noroeste 0 -- -- 59
2019-09-21 18:00:00 24.9 9 Nordeste 24 Norte 0 -- -- 53
2019-09-21 17:00:00 25.3 7 Norte 33 Noroeste 0 -- -- 51
2019-09-21 16:00:00 24.7 5 Sur 21 Este 0 -- -- 48
2019-09-21 15:00:00 24.6 9 Este 23 Nordeste 0 -- -- 51
2019-09-21 14:00:00 24.2 9 Noroeste 24 Sudoeste 0 -- -- 53
2019-09-21 13:00:00 23.3 6 Noroeste 16 Norte 0 -- -- 56
2019-09-21 12:00:00 19.3 0 Calma 6 Este 0 -- -- 66
2019-09-21 11:00:00 17.6 4 Este 21 Sudoeste 0 -- -- 79
2019-09-21 10:00:00 14.7 10 Oeste 24 Este 0.2 -- -- 89
2019-09-21 09:00:00 14.2 0 Calma 12 Sur 0.2 -- -- 93
2019-09-21 08:00:00 14.4 3 Sudeste 5 Sur 0 -- -- 88
2019-09-21 07:00:00 14.5 5 Este 9 Este 0 -- -- 91
2019-09-21 06:00:00 14.5 5 Sudoeste 13 Sudeste 1.6 -- -- 92
2019-09-21 05:00:00 15.2 7 Sudoeste 19 Sudoeste 2.6 -- -- 86
2019-09-21 04:00:00 16.5 5 Sur 14 Sudeste 1 -- -- 87
2019-09-21 03:00:00 16.9 3 Sudeste 10 Sur 0 -- -- 79
2019-09-21 02:00:00 17.1 5 Sur 14 Este 0 -- -- 75
2019-09-21 01:00:00 17.1 10 Sudeste 29 Este 0 -- -- 71
2019-09-21 00:00:00 17.2 7 Este 25 Sur 0 -- -- 65
2019-09-20 23:00:00 17.8 15 Sudeste 28 Sudeste 0 -- -- 73
2019-09-20 22:00:00 18.5 16 Este 35 Sudeste 0 -- -- 78
2019-09-20 21:00:00 19.1 14 Sudeste 31 Este 0 -- -- 75
2019-09-20 20:00:00 19.7 15 Este 33 Sudeste 0 -- -- 74
2019-09-20 19:00:00 20.7 17 Sudeste 35 Sudeste 0 -- -- 69
2019-09-20 18:00:00 21.4 14 Sudeste 35 Este 0 -- -- 67
2019-09-20 17:00:00 23.1 18 Este 34 Nordeste 0 -- -- 61
2019-09-20 16:00:00 24.1 19 Este 33 Este 0 -- -- 57
2019-09-20 15:00:00 24.3 18 Sudeste 32 Este 0 -- -- 54
2019-09-20 14:00:00 24.2 14 Sudeste 27 Sur 0 -- -- 57
2019-09-20 13:00:00 23.2 13 Sudeste 29 Sudeste 0 -- -- 59
2019-09-20 12:00:00 23.3 17 Sur 26 Sur 0 -- -- 58
2019-09-20 11:00:00 21.7 14 Sudeste 23 Sur 0 -- -- 64
2019-09-20 10:00:00 19.9 14 Sur 27 Sur 0 -- -- 68
2019-09-20 09:00:00 17.9 12 Sur 22 Sudoeste 0 -- -- 76
2019-09-20 08:00:00 16.5 8 Sur 16 Sur 0 -- -- 80
2019-09-20 07:00:00 16.2 7 Sudoeste 15 Sudoeste 0 -- -- 79
2019-09-20 06:00:00 15.7 5 Sudeste 10 Sur 0 -- -- 80
2019-09-20 05:00:00 16.3 5 Sur 12 Sudeste 0 -- -- 77
2019-09-20 04:00:00 17 5 Sudeste 11 Sudoeste 0 -- -- 76
2019-09-20 03:00:00 18.2 7 Sur 14 Sudoeste 0 -- -- 73
2019-09-20 02:00:00 18.6 8 Sur 16 Sur 0 -- -- 68
2019-09-20 01:00:00 18.7 3 Sudeste 8 Sudoeste 0 -- -- 66
2019-09-20 00:00:00 19.1 5 Sur 21 Sur 0 -- -- 66
2019-09-19 23:00:00 19.8 9 Sudeste 17 Sur 0 -- -- 60
2019-09-19 22:00:00 19.6 5 Sur 13 Sur 0 -- -- 64
2019-09-19 21:00:00 19.6 4 Sudoeste 12 Sur 0 -- -- 65
2019-09-19 20:00:00 20.1 7 Sur 12 Sudoeste 0 -- -- 61
2019-09-19 19:00:00 21.1 8 Sur 18 Este 0 -- -- 56
2019-09-19 18:00:00 22.1 8 Sudeste 27 Sur 0 -- -- 52
2019-09-19 17:00:00 23.5 14 Sudeste 33 Sudeste 0 -- -- 64
2019-09-19 16:00:00 25.6 15 Este 24 Este 0 -- -- 51
2019-09-19 15:00:00 27.1 9 Este 23 Este 0 -- -- 46
2019-09-19 14:00:00 26.2 7 Este 19 Este 0 -- -- 47
2019-09-19 13:00:00 25 6 Nordeste 16 Este 0 -- -- 52
2019-09-19 12:00:00 22.9 3 Sur 9 Sudeste 0 -- -- 54
2019-09-19 11:00:00 19.9 3 Sur 6 Sur 0 -- -- 64
2019-09-19 10:00:00 16.6 0 Calma 5 Este 0 -- -- 73
2019-09-19 09:00:00 15.2 3 Nordeste 10 Este 0 -- -- 76
2019-09-19 08:00:00 14.2 9 Este 10 Nordeste 0 -- -- 79
2019-09-19 07:00:00 14.2 5 Este 8 Nordeste 0 -- -- 79
2019-09-19 06:00:00 15.1 4 Sudeste 6 Sudeste 0 -- -- 74
2019-09-19 05:00:00 15.6 0 Calma 6 Este 0 -- -- 72
2019-09-19 04:00:00 16.4 5 Este 7 Este 0 -- -- 69
2019-09-19 03:00:00 17.9 3 Este 9 Sudoeste 0 -- -- 64
2019-09-19 02:00:00 19.6 10 Oeste 22 Oeste 0 -- -- 55
2019-09-19 01:00:00 18.7 6 Oeste 14 Noroeste 0 -- -- 60
2019-09-19 00:00:00 20 2 Este 12 Sur 0 -- -- 53
2019-09-18 23:00:00 19.8 7 Sur 17 Sur 0 -- -- 57
2019-09-18 22:00:00 20.1 9 Sudoeste 19 Sudoeste 0 -- -- 53
2019-09-18 21:00:00 20.9 14 Sur 27 Sudoeste 0 -- -- 57
2019-09-18 20:00:00 20.6 6 Sudoeste 13 Sudoeste 0 -- -- 59
2019-09-18 19:00:00 21.1 7 Sur 12 Sur 0 -- -- 67
2019-09-18 18:00:00 20.8 3 Este 14 Noroeste 0 -- -- 73
2019-09-18 17:00:00 19.4 3 Oeste 25 Este 1.2 -- -- 84
2019-09-18 16:00:00 20.3 19 Este 43 Sur 4 -- -- 68
2019-09-18 15:00:00 25.2 15 Este 29 Este 0 -- -- 43
2019-09-18 14:00:00 25.9 9 Este 25 Este 0 -- -- 42
2019-09-18 13:00:00 25.9 6 Este 15 Este 0 -- -- 40
2019-09-18 12:00:00 21.5 3 Sudeste 14 Sudeste 0 -- -- 53
2019-09-18 11:00:00 19.9 5 Oeste 15 Sudoeste 0 -- -- 57
2019-09-18 10:00:00 17.5 8 Noroeste 14 Norte 0 -- -- 68
2019-09-18 09:00:00 16.6 2 Sur 7 Este 0 -- -- 64
2019-09-18 08:00:00 15.5 3 Este 4 Este 0 -- -- 68
2019-09-18 07:00:00 15.8 2 Sudeste 6 Sudeste 0 -- -- 67
2019-09-18 06:00:00 16.6 3 Norte 16 Nordeste 0 -- -- 66
2019-09-18 05:00:00 16.4 5 Este 9 Este 0 -- -- 68
2019-09-18 04:00:00 17.1 4 Sudeste 7 Sudeste 0 -- -- 66
2019-09-18 03:00:00 18.1 3 Sudeste 8 Sudeste 0 -- -- 61
2019-09-18 02:00:00 18.6 3 Este 15 Sur 0 -- -- 61
2019-09-18 01:00:00 18.9 10 Sur 24 Sudoeste 0 -- -- 62
2019-09-18 00:00:00 19.8 7 Sur 33 Sudoeste 0 -- -- 57
2019-09-17 23:00:00 20.7 26 Sudoeste 78 Sudoeste 0 -- -- 54
2019-09-17 22:00:00 22.7 3 Sur 12 Sudeste 0 -- -- 56
2019-09-17 21:00:00 23.6 5 Este 8 Sudeste 0 -- -- 52
2019-09-15 18:00:00 -- -- -- -- -- -- -- -- --
2019-09-15 17:00:00 26 12 Este 33 Este 0 -- -- 49
2019-09-15 16:00:00 26.3 15 Este 35 Este 0 -- -- 44
2019-09-15 15:00:00 26.1 4 Sudoeste 14 Sudoeste 0 -- -- 51
2019-09-15 14:00:00 25.3 8 Este 28 Este 0 -- -- 48
2019-09-15 13:00:00 24.9 15 Este 28 Este 0 -- -- 49
2019-09-15 12:00:00 23 13 Este 24 Este 0 -- -- 53
2019-09-15 11:00:00 20.9 4 Sur 12 Sur 0 -- -- 61
2019-09-15 10:00:00 19.1 3 Sudoeste 5 Sur 0 -- -- 70
2019-09-15 09:00:00 16.9 2 Este 8 Sudoeste 0 -- -- 73
2019-09-15 08:00:00 16 5 Oeste 11 Sudoeste 0 -- -- 78
2019-09-15 07:00:00 15.3 0 Calma 5 Sur 0 -- -- 68
2019-09-15 06:00:00 16 2 Oeste 5 Este 0 -- -- 64
2019-09-15 05:00:00 16.4 3 Sur 11 Sur 0 -- -- 61
2019-09-15 04:00:00 16.1 3 Sudoeste 12 Sur 0 -- -- 64
2019-09-15 03:00:00 16.8 4 Sudoeste 6 Sudoeste 0 -- -- 60
2019-09-15 02:00:00 17.4 3 Sur 10 Sudoeste 0 -- -- 56
2019-09-15 01:00:00 17.7 3 Sur 8 Oeste 0 -- -- 56
2019-09-15 00:00:00 18.2 4 Sudoeste 9 Sudoeste 0 -- -- 52
2019-09-14 23:00:00 18.6 4 Sudoeste 8 Sur 0 -- -- 52
2019-09-14 22:00:00 19.2 5 Sudoeste 8 Sudoeste 0 -- -- 51
2019-09-14 21:00:00 19.9 5 Sur 12 Sur 0 -- -- 50
2019-09-14 20:00:00 21.4 5 Sur 12 Sur 0 -- -- 44
2019-09-14 19:00:00 22.4 5 Sur 13 Sur 0 -- -- 44
2019-09-14 18:00:00 23.4 9 Sudeste 28 Este 0 -- -- 43
2019-09-14 17:00:00 23.1 21 Este 41 Este 0 -- -- 43
2019-09-14 16:00:00 23.5 12 Este 21 Este 0 -- -- 53
2019-09-14 15:00:00 22 5 Sudeste 16 Sudeste 0 -- -- 61
2019-09-14 14:00:00 19.5 5 Nordeste 15 Norte 0 -- -- 70
2019-09-14 13:00:00 18 4 Nordeste 18 Nordeste 0 -- -- 73
2019-09-14 12:00:00 15.9 3 Noroeste 14 Nordeste 0 -- -- 91
2019-09-14 11:00:00 15 3 Noroeste 11 Nordeste 0 -- -- 93
2019-09-14 10:00:00 14 2 Nordeste 8 Este 0 -- -- 94
2019-09-14 09:00:00 13.4 3 Este 5 Este 0 -- -- 96
2019-09-14 08:00:00 12.1 0 Calma 5 Sur 0 -- -- 96
2019-09-14 07:00:00 12.5 0 Calma 6 Este 0 -- -- 95
2019-09-14 06:00:00 -- -- -- -- -- -- -- -- --
2019-09-14 05:00:00 13.5 0 Calma 4 Sur 0 -- -- 94
2019-09-14 04:00:00 14.2 2 Oeste 4 Oeste 0 -- -- 94
2019-09-14 03:00:00 14.6 0 Calma 8 Oeste 0 -- -- 92
2019-09-14 02:00:00 14.8 3 Sudoeste 8 Sudoeste 0 -- -- 91
2019-09-14 01:00:00 15.7 5 Oeste 11 Oeste 0 -- -- 85
2019-09-14 00:00:00 15.6 4 Noroeste 13 Este 1.2 -- -- 91
2019-09-13 23:00:00 16.3 5 Oeste 22 Sudeste 2.4 -- -- 85
2019-09-13 22:00:00 17.3 6 Sudeste 26 Sudeste 0.2 -- -- 79
2019-09-13 21:00:00 17.9 6 Sudeste 15 Sudeste 0 -- -- 73
2019-09-13 20:00:00 18.6 8 Sur 19 Sur 0 -- -- 69
2019-09-13 19:00:00 20.2 6 Sudeste 21 Sudeste 0 -- -- 61
2019-09-13 18:00:00 21.6 14 Este 27 Este 0 -- -- 49
2019-09-13 17:00:00 22.2 7 Sudeste 26 Este 0 -- -- 53
2019-09-13 16:00:00 21.6 12 Este 27 Este 0 -- -- 55
2019-09-13 15:00:00 19.6 6 Sudeste 28 Este 0 -- -- 64
2019-09-13 14:00:00 20.1 12 Este 24 Este 0.2 -- -- 62
2019-09-13 13:00:00 17.8 9 Sudeste 33 Este 0 -- -- 70
2019-09-13 12:00:00 17 3 Este 10 Este 0 -- -- 67
2019-09-13 11:00:00 15.9 2 Este 9 Nordeste 0 -- -- 68
2019-09-13 10:00:00 15.3 4 Oeste 7 Sudoeste 0 -- -- 66
2019-09-13 09:00:00 14.3 3 Sudeste 12 Sur 0 -- -- 69
2019-09-13 08:00:00 15.1 3 Este 21 Oeste 0 -- -- 66
2019-09-13 07:00:00 15.5 4 Nordeste 11 Norte 0 -- -- 64
2019-09-13 06:00:00 15 0 Calma 12 Norte 0 -- -- 65
2019-09-13 05:00:00 15.5 0 Calma 8 Sudeste 0 -- -- 62
2019-09-13 04:00:00 16.9 3 Nordeste 9 Nordeste 0 -- -- 55
2019-09-13 03:00:00 18.4 2 Este 13 Sudoeste 0 -- -- 48
2019-09-13 02:00:00 18.1 9 Sudoeste 16 Sudoeste 0 -- -- 50
2019-09-13 01:00:00 17.6 9 Sudoeste 14 Sur 0 -- -- 55
2019-09-13 00:00:00 18.4 3 Sur 13 Sudoeste 0 -- -- 55
2019-09-12 23:00:00 18.9 6 Sudoeste 11 Sudoeste 0 -- -- 56
2019-09-12 22:00:00 20 3 Sur 7 Noroeste 0 -- -- 54
2019-09-12 21:00:00 21.2 5 Norte 12 Noroeste 0 -- -- 49
2019-09-12 20:00:00 22.6 4 Nordeste 30 Oeste 0 -- -- 47
2019-09-12 19:00:00 23.7 12 Oeste 20 Oeste 0 -- -- 44
2019-09-12 18:00:00 23.9 7 Este 19 Nordeste 0 -- -- 44
2019-09-12 17:00:00 23.6 6 Este 28 Este 0 -- -- 46
2019-09-12 16:00:00 23.5 10 Este 20 Este 0 -- -- 47
2019-09-12 15:00:00 22.8 8 Este 28 Sudeste 0 -- -- 48
2019-09-12 14:00:00 22.2 8 Nordeste 24 Este 0 -- -- 49
2019-09-12 13:00:00 21.1 8 Oeste 15 Este 0 -- -- 52
2019-09-12 12:00:00 19.8 7 Este 13 Este 0 -- -- 59
2019-09-12 11:00:00 17.6 5 Sur 9 Sur 0 -- -- 65
2019-09-12 10:00:00 14.7 3 Sudeste 5 Este 0 -- -- 75
2019-09-12 09:00:00 13.4 3 Sudeste 5 Sudeste 0 -- -- 81
2019-09-12 08:00:00 11.8 3 Oeste 18 Noroeste 0 -- -- 89
2019-09-12 07:00:00 12.6 3 Oeste 5 Sur 0 -- -- 82
2019-09-12 06:00:00 13.4 3 Norte 8 Noroeste 0 -- -- 74
2019-09-12 05:00:00 13.2 3 Noroeste 12 Oeste 0 -- -- 77
2019-09-12 04:00:00 13.6 4 Oeste 19 Norte 0 -- -- 76
2019-09-12 03:00:00 13.5 7 Oeste 13 Oeste 0 -- -- 84
2019-09-12 02:00:00 14 5 Este 14 Noroeste 0 -- -- 78
2019-09-12 01:00:00 14.7 4 Oeste 21 Oeste 0 -- -- 76
2019-09-12 00:00:00 15.6 5 Norte 13 Norte 0 -- -- 79
2019-09-11 23:00:00 15.9 4 Norte 12 Norte 0 -- -- 80
2019-09-11 22:00:00 15.9 2 Oeste 9 Este 0 -- -- 82
2019-09-11 21:00:00 16.4 0 Calma 14 Sudoeste 0 -- -- 79
2019-09-11 20:00:00 17.3 4 Sur 14 Este 0 -- -- 76
2019-09-11 19:00:00 17.6 7 Este 14 Este 0 -- -- 74
2019-09-11 18:00:00 17.2 4 Este 12 Este 0 -- -- 75
2019-09-11 17:00:00 16.8 4 Sudoeste 11 Sur 0 -- -- 81
2019-09-11 16:00:00 15 3 Sudoeste 12 Nordeste 0 -- -- 91
2019-09-11 15:00:00 13.6 3 Sudoeste 9 Sudeste 0.4 -- -- 91
2019-09-11 14:00:00 12.4 5 Sudeste 14 Este 1.8 -- -- 92
2019-09-11 13:00:00 12 8 Este 37 Noroeste 2.4 -- -- 88
2019-09-11 12:00:00 13.1 8 Oeste 50 Noroeste 0.8 -- -- 78
2019-09-11 11:00:00 12.9 31 Noroeste 63 Noroeste 0 -- -- 73
2019-09-11 10:00:00 12.3 33 Noroeste 56 Noroeste 0.4 -- -- 74
2019-09-11 09:00:00 12.2 15 Oeste 46 Oeste 0 -- -- 76
2019-09-11 08:00:00 11.8 20 Oeste 48 Oeste 0.2 -- -- 80
2019-09-11 07:00:00 11.5 14 Oeste 42 Sudoeste 0.4 -- -- 80
2019-09-11 06:00:00 11.8 28 Oeste 55 Oeste 0 -- -- 76
2019-09-11 05:00:00 11.9 19 Oeste 50 Sudoeste 0.2 -- -- 75
2019-09-11 04:00:00 11.6 18 Oeste 44 Noroeste 0 -- -- 78
2019-09-11 03:00:00 11.2 14 Oeste 42 Oeste 0.2 -- -- 80
2019-09-11 02:00:00 11 18 Oeste 49 Sudoeste 0.4 -- -- 82
2019-09-11 01:00:00 11.6 18 Noroeste 43 Noroeste 0 -- -- 77
2019-09-11 00:00:00 11.6 24 Noroeste 57 Noroeste 0.4 -- -- 76
2019-09-10 23:00:00 12 26 Oeste 52 Oeste 0.2 -- -- 74
2019-09-10 22:00:00 11.8 13 Noroeste 51 Oeste 0.6 -- -- 77
2019-09-10 21:00:00 12 17 Noroeste 44 Noroeste 0.6 -- -- 78
2019-09-10 20:00:00 11.8 9 Norte 31 Noroeste 2.6 -- -- 77
2019-09-10 19:00:00 13 21 Este 61 Noroeste 0 -- -- 68
2019-09-10 18:00:00 16.4 27 Noroeste 64 Noroeste 0 -- -- 43
2019-09-10 17:00:00 16 31 Noroeste 66 Norte 0 -- -- 45
2019-09-10 16:00:00 16.8 32 Noroeste 59 Noroeste 0 -- -- 41
2019-09-10 15:00:00 17.8 25 Noroeste 55 Oeste 0 -- -- 39
2019-09-10 14:00:00 16.5 28 Oeste 60 Oeste 0 -- -- 42
2019-09-10 13:00:00 15.9 27 Oeste 61 Oeste 0 -- -- 43
2019-09-10 12:00:00 14.6 26 Oeste 58 Noroeste 0 -- -- 47
2019-09-10 11:00:00 14 15 Oeste 49 Noroeste 0 -- -- 52
2019-09-10 10:00:00 12.1 22 Oeste 54 Oeste 0 -- -- 62
2019-09-10 09:00:00 11.9 15 Noroeste 39 Oeste 0 -- -- 63
2019-09-10 08:00:00 12.7 19 Noroeste 56 Oeste 0 -- -- 61
2019-09-10 07:00:00 13.6 16 Noroeste 45 Noroeste 0 -- -- 68
2019-09-10 06:00:00 13.6 21 Noroeste 50 Noroeste 0 -- -- 67
2019-09-10 05:00:00 13.8 22 Oeste 47 Oeste 0 -- -- 64
2019-09-10 04:00:00 14.6 25 Oeste 48 Oeste 0 -- -- 59
2019-09-10 03:00:00 15.6 26 Oeste 51 Noroeste 0 -- -- 56
2019-09-10 02:00:00 18.3 3 Sur 31 Oeste 0 -- -- 48
2019-09-10 01:00:00 18.8 16 Oeste 24 Oeste 0 -- -- 48
2019-09-10 00:00:00 19.8 12 Noroeste 37 Noroeste 0 -- -- 46
2019-09-09 23:00:00 20.3 2 Sur 10 Sur 0 -- -- 73
2019-09-09 22:00:00 20.4 5 Sur 13 Sudeste 0 -- -- 74
2019-09-09 21:00:00 21 6 Sudeste 17 Sudeste 0 -- -- 71
2019-09-09 20:00:00 22.1 6 Sudeste 21 Sudeste 0 -- -- 65
2019-09-09 19:00:00 25.1 7 Este 22 Este 0 -- -- 47
2019-09-09 18:00:00 26 6 Sudeste 26 Nordeste 0 -- -- 32
2019-09-09 17:00:00 26.9 7 Este 23 Este 0 -- -- 34
2019-09-09 16:00:00 25.9 9 Nordeste 27 Norte 0 -- -- 35
2019-09-09 15:00:00 26.7 7 Nordeste 23 Este 0 -- -- 34
2019-09-09 14:00:00 25.1 10 Norte 25 Norte 0 -- -- 36
2019-09-09 13:00:00 22.6 10 Norte 25 Nordeste 0 -- -- 42
2019-09-09 12:00:00 21.3 9 Norte 23 Norte 0 -- -- 44
2019-09-09 11:00:00 19.6 6 Norte 17 Norte 0 -- -- 49
2019-09-09 10:00:00 16.9 3 Sudeste 8 Este 0 -- -- 57
2019-09-09 09:00:00 14 5 Este 7 Nordeste 0 -- -- 64
2019-09-09 08:00:00 12.1 2 Este 5 Este 0 -- -- 70
2019-09-09 07:00:00 12.6 0 Calma 4 Nordeste 0 -- -- 68
2019-09-09 06:00:00 13.1 0 Calma 4 Este 0 -- -- 65
2019-09-09 05:00:00 14.1 0 Calma 3 Sur 0 -- -- 61
2019-09-09 04:00:00 14.4 2 Sur 4 Sudeste 0 -- -- 60
2019-09-09 03:00:00 15 0 Calma 8 Sudeste 0 -- -- 57
2019-09-09 02:00:00 16.4 4 Sudoeste 28 Oeste 0 -- -- 51
2019-09-09 01:00:00 17 15 Oeste 33 Oeste 0 -- -- 51
2019-09-09 00:00:00 17.8 3 Sudoeste 14 Noroeste 0 -- -- 51
2019-09-08 23:00:00 18.5 0 Calma 10 Nordeste 0 -- -- 48
2019-09-08 22:00:00 19.3 5 Este 13 Nordeste 0 -- -- 47
2019-09-08 21:00:00 20.5 7 Este 15 Nordeste 0 -- -- 46
2019-09-08 20:00:00 22.1 3 Sudoeste 22 Este 0 -- -- 42
2019-09-08 19:00:00 23.4 11 Sudeste 25 Este 0 -- -- 39
2019-09-08 18:00:00 24.5 10 Sudeste 27 Sudeste 0 -- -- 38
2019-09-08 17:00:00 24.3 18 Este 39 Este 0 -- -- 38
2019-09-08 16:00:00 24.6 11 Este 37 Este 0 -- -- 38
2019-09-08 15:00:00 24.7 11 Sudeste 29 Este 0 -- -- 38
2019-09-08 14:00:00 23.5 9 Norte 28 Nordeste 0 -- -- 39
2019-09-08 13:00:00 22.5 5 Sudoeste 23 Oeste 0 -- -- 41
2019-09-08 12:00:00 20 9 Noroeste 21 Noroeste 0 -- -- 47
2019-09-08 11:00:00 18.1 8 Oeste 21 Oeste 0 -- -- 52
2019-09-08 10:00:00 16.3 6 Oeste 20 Oeste 0 -- -- 58
2019-09-08 09:00:00 14.2 4 Oeste 15 Oeste 0 -- -- 65
2019-09-08 08:00:00 12.9 3 Este 22 Noroeste 0 -- -- 67
2019-09-08 07:00:00 13.6 3 Oeste 21 Oeste 0 -- -- 61
2019-09-08 06:00:00 13.3 4 Norte 12 Noroeste 0 -- -- 62
2019-09-08 05:00:00 13.4 3 Sudoeste 15 Noroeste 0 -- -- 57
2019-09-08 04:00:00 15 5 Oeste 20 Oeste 0 -- -- 52
2019-09-08 03:00:00 15.6 4 Sur 14 Oeste 0 -- -- 50
2019-09-08 02:00:00 16.1 5 Este 39 Oeste 0 -- -- 49
2019-09-08 01:00:00 16.9 24 Oeste 37 Oeste 0 -- -- 47
2019-09-08 00:00:00 18.2 6 Noroeste 15 Noroeste 0 -- -- 38
2019-09-07 23:00:00 19 4 Oeste 9 Oeste 0 -- -- 36
2019-09-07 22:00:00 19.1 3 Oeste 12 Este 0 -- -- 37
2019-09-07 21:00:00 19.7 5 Este 16 Norte 0 -- -- 38
2019-09-07 20:00:00 20.9 4 Sudeste 17 Este 0 -- -- 37
2019-09-07 19:00:00 22.2 8 Este 25 Este 0 -- -- 36
2019-09-07 18:00:00 22.8 8 Este 31 Este 0 -- -- 36
2019-09-07 17:00:00 22.4 22 Este 40 Este 0 -- -- 38
2019-09-07 16:00:00 22.1 23 Este 42 Este 0 -- -- 39
2019-09-07 15:00:00 22.1 23 Este 38 Este 0 -- -- 40
2019-09-07 14:00:00 21.4 14 Este 25 Este 0 -- -- 41
2019-09-07 13:00:00 19.9 10 Este 19 Nordeste 0 -- -- 44
2019-09-07 12:00:00 17.9 8 Nordeste 20 Este 0 -- -- 48
2019-09-07 11:00:00 15.2 9 Norte 22 Sudoeste 0 -- -- 54
2019-09-07 10:00:00 13.8 9 Oeste 20 Oeste 0 -- -- 59
2019-09-07 09:00:00 12.4 10 Oeste 28 Noroeste 0 -- -- 63
2019-09-07 08:00:00 11.9 8 Sudoeste 23 Noroeste 0 -- -- 65
2019-09-07 07:00:00 11.7 8 Oeste 24 Sudoeste 0 -- -- 67
2019-09-07 06:00:00 11.5 8 Oeste 31 Noroeste 0 -- -- 67
2019-09-07 05:00:00 11.8 12 Sur 32 Oeste 0 -- -- 65
2019-09-07 04:00:00 12 4 Sudoeste 28 Oeste 0 -- -- 63
2019-09-07 03:00:00 12.3 10 Sudoeste 30 Sur 0 -- -- 61
2019-09-07 02:00:00 13.1 8 Sudeste 45 Oeste 0 -- -- 57
2019-09-07 01:00:00 13.8 25 Oeste 41 Oeste 0 -- -- 53
2019-09-07 00:00:00 14.4 24 Oeste 45 Noroeste 0 -- -- 51
2019-09-06 23:00:00 15.2 28 Oeste 49 Oeste 0 -- -- 48
2019-09-06 22:00:00 16.8 7 Noroeste 32 Oeste 0 -- -- 42
2019-09-06 21:00:00 18 6 Este 23 Nordeste 0 -- -- 39
2019-09-06 20:00:00 19.9 7 Este 22 Este 0 -- -- 35
2019-09-06 19:00:00 21.6 10 Este 38 Este 0 -- -- 33
2019-09-06 18:00:00 23.4 10 Nordeste 23 Sudeste 0 -- -- 32
2019-09-06 17:00:00 23.7 11 Sudoeste 33 Sudoeste 0 -- -- 34
2019-09-06 16:00:00 22.9 10 Este 36 Oeste 0 -- -- 36
2019-09-06 15:00:00 22.2 12 Sur 31 Oeste 0 -- -- 38
2019-09-06 14:00:00 21 15 Oeste 30 Oeste 0 -- -- 39
2019-09-06 13:00:00 19.1 12 Noroeste 33 Noroeste 0 -- -- 42
2019-09-06 12:00:00 17.1 12 Noroeste 31 Oeste 0 -- -- 47
2019-09-06 11:00:00 15.4 12 Oeste 34 Noroeste 0 -- -- 53
2019-09-06 10:00:00 13.5 12 Oeste 35 Oeste 0 -- -- 60
2019-09-06 09:00:00 12 12 Oeste 41 Oeste 0 -- -- 65
2019-09-06 08:00:00 10.9 21 Oeste 40 Oeste 0 -- -- 68
2019-09-06 07:00:00 10.9 23 Oeste 45 Oeste 0 -- -- 69
2019-09-06 06:00:00 11.2 26 Oeste 45 Oeste 0 -- -- 69
2019-09-06 05:00:00 11.5 24 Oeste 42 Oeste 0 -- -- 67
2019-09-06 04:00:00 11.8 19 Oeste 35 Oeste 0 -- -- 66
2019-09-06 03:00:00 12.1 16 Oeste 46 Sudoeste 0 -- -- 64
2019-09-06 02:00:00 12.2 8 Noroeste 24 Noroeste 0 -- -- 63
2019-09-06 01:00:00 12.9 10 Oeste 19 Oeste 0 -- -- 62
2019-09-06 00:00:00 13.5 5 Oeste 25 Oeste 0 -- -- 60
2019-09-05 23:00:00 14.3 10 Noroeste 35 Oeste 0 -- -- 57
2019-09-05 22:00:00 15.3 15 Oeste 33 Oeste 0 -- -- 53
2019-09-05 21:00:00 16.6 14 Noroeste 41 Oeste 0 -- -- 46
2019-09-05 20:00:00 18.8 12 Noroeste 58 Noroeste 0 -- -- 38
2019-09-05 19:00:00 21.1 18 Noroeste 50 Noroeste 0 -- -- 33
2019-09-05 18:00:00 21.8 20 Oeste 41 Oeste 0 -- -- 31
2019-09-05 17:00:00 22.1 21 Noroeste 45 Noroeste 0 -- -- 32
2019-09-05 16:00:00 22 14 Sudoeste 50 Noroeste 0 -- -- 34
2019-09-05 15:00:00 21.3 24 Oeste 48 Oeste 0 -- -- 35
2019-09-05 14:00:00 20.9 16 Oeste 45 Oeste 0 -- -- 37
2019-09-05 13:00:00 20 19 Noroeste 42 Sudoeste 0 -- -- 45
2019-09-05 12:00:00 17.9 13 Noroeste 40 Oeste 0 -- -- 52
2019-09-05 11:00:00 16.9 15 Oeste 37 Oeste 0 -- -- 56
2019-09-05 10:00:00 15.3 15 Oeste 41 Noroeste 0 -- -- 67
2019-09-05 09:00:00 15.2 15 Noroeste 49 Oeste 0 -- -- 70
2019-09-05 08:00:00 14.8 9 Sudoeste 31 Oeste 0 -- -- 71
2019-09-05 07:00:00 14.2 9 Norte 25 Este 0 -- -- 67
2019-09-05 06:00:00 14.3 8 Este 24 Noroeste 0 -- -- 60
2019-09-05 05:00:00 14.3 6 Oeste 28 Noroeste 0 -- -- 64
2019-09-05 04:00:00 14.7 6 Noroeste 22 Sudoeste 0 -- -- 65
2019-09-05 03:00:00 15.4 8 Oeste 19 Sudoeste 0 -- -- 62
2019-09-05 02:00:00 16 5 Oeste 22 Oeste 0 -- -- 60
2019-09-05 01:00:00 16.8 8 Sudoeste 32 Sudoeste 0 -- -- 58
2019-09-05 00:00:00 17.8 9 Noroeste 51 Norte 0 -- -- 57
2019-09-04 23:00:00 19.1 28 Oeste 60 Noroeste 0 -- -- 52
2019-09-04 22:00:00 22.6 9 Noroeste 33 Noroeste 0 -- -- 40
2019-09-04 21:00:00 23.9 18 Noroeste 33 Noroeste 0 -- -- 29
2019-09-04 20:00:00 26 7 Norte 21 Nordeste 0 -- -- 32
2019-09-04 19:00:00 27.2 11 Sudeste 26 Este 0 -- -- 30
2019-09-04 18:00:00 28.3 11 Este 32 Este 0 -- -- 29
2019-09-04 17:00:00 28.8 9 Este 28 Nordeste 0 -- -- 28
2019-09-04 16:00:00 28.7 9 Este 35 Este 0 -- -- 30
2019-09-04 15:00:00 28 18 Este 38 Nordeste 0 -- -- 32
2019-09-04 14:00:00 27.4 13 Este 28 Este 0 -- -- 35
2019-09-04 13:00:00 25.9 11 Este 22 Este 0 -- -- 42
2019-09-04 12:00:00 24.5 7 Este 16 Noroeste 0 -- -- 44
2019-09-04 11:00:00 21.9 6 Norte 12 Noroeste 0 -- -- 50
2019-09-04 10:00:00 20.2 3 Nordeste 9 Norte 0 -- -- 60
2019-09-04 09:00:00 17.6 5 Este 9 Este 0 -- -- 71
2019-09-04 08:00:00 15.6 4 Este 10 Este 0 -- -- 78
2019-09-04 07:00:00 15.4 6 Este 8 Este 0 -- -- 77
2019-09-04 06:00:00 16 5 Este 8 Nordeste 0 -- -- 72
2019-09-04 05:00:00 15.9 6 Este 9 Este 0 -- -- 70
2019-09-04 04:00:00 16.3 7 Este 10 Este 0 -- -- 67
2019-09-04 03:00:00 17.1 4 Este 7 Este 0 -- -- 64
2019-09-04 02:00:00 17.9 3 Este 5 Este 0 -- -- 60
2019-09-04 01:00:00 18.8 0 Calma 6 Sudeste 0 -- -- 56
2019-09-04 00:00:00 19.9 4 Sur 5 Sur 0 -- -- 56
2019-09-03 23:00:00 21.3 2 Sudeste 5 Sudeste 0 -- -- 60
2019-09-03 22:00:00 21.5 7 Este 14 Este 0 -- -- 40
2019-09-03 21:00:00 22.8 4 Norte 19 Este 0 -- -- 37
2019-09-03 20:00:00 24 13 Este 22 Este 0 -- -- 36
2019-09-03 19:00:00 25.1 15 Este 32 Este 0 -- -- 36
2019-09-03 18:00:00 25.7 17 Este 36 Sudeste 0 -- -- 37
2019-09-03 17:00:00 26.4 13 Este 29 Este 0 -- -- 37
2019-09-03 16:00:00 26.7 12 Este 29 Este 0 -- -- 38
2019-09-03 15:00:00 25.9 12 Este 28 Este 0 -- -- 40
2019-09-03 14:00:00 24.7 10 Este 23 Este 0 -- -- 42
2019-09-03 13:00:00 22.6 7 Este 21 Este 0 -- -- 45
2019-09-03 12:00:00 20.4 3 Norte 17 Este 0 -- -- 50
2019-09-03 11:00:00 18.4 5 Norte 13 Este 0 -- -- 55
2019-09-03 10:00:00 15.4 5 Este 9 Este 0 -- -- 65
2019-09-03 09:00:00 13 0 Calma 6 Nordeste 0 -- -- 75
2019-09-03 08:00:00 12.2 2 Sudeste 4 Este 0 -- -- 77
2019-09-03 07:00:00 12.5 0 Calma 3 Este 0 -- -- 74
2019-09-03 06:00:00 13 0 Calma 6 Noroeste 0 -- -- 71
2019-09-03 05:00:00 13.2 0 Calma 12 Noroeste 0 -- -- 71
2019-09-03 04:00:00 13.8 0 Calma 8 Sudeste 0 -- -- 68
2019-09-03 03:00:00 14.8 3 Sudeste 21 Nordeste 0 -- -- 63
2019-09-03 02:00:00 15.6 5 Oeste 32 Oeste 0 -- -- 60
2019-09-03 01:00:00 16.4 15 Oeste 41 Oeste 0 -- -- 57
2019-09-03 00:00:00 17.3 18 Noroeste 41 Noroeste 0 -- -- 54
2019-09-02 23:00:00 18.5 15 Noroeste 31 Oeste 0 -- -- 49
2019-09-02 22:00:00 19.7 14 Noroeste 30 Noroeste 0 -- -- 44
2019-09-02 21:00:00 20.6 12 Noroeste 20 Noroeste 0 -- -- 43
2019-09-02 20:00:00 22.7 4 Este 21 Este 0 -- -- 38
2019-09-02 19:00:00 24.2 6 Sudeste 34 Oeste 0 -- -- 33
2019-09-02 18:00:00 24.7 16 Oeste 34 Oeste 0 -- -- 33
2019-09-02 17:00:00 24.4 8 Este 40 Oeste 0 -- -- 39
2019-09-02 16:00:00 23.5 12 Noroeste 29 Oeste 0 -- -- 42
2019-09-02 15:00:00 23.1 11 Oeste 32 Oeste 0 -- -- 45
2019-09-02 14:00:00 22.1 10 Sudeste 36 Oeste 0 -- -- 47
2019-09-02 13:00:00 19.4 12 Noroeste 27 Oeste 0 -- -- 57
2019-09-02 12:00:00 18.5 13 Oeste 28 Oeste 0 -- -- 61
2019-09-02 11:00:00 16.7 11 Noroeste 30 Oeste 0 -- -- 66
2019-09-02 10:00:00 15.4 12 Noroeste 21 Oeste 0 -- -- 73
2019-09-02 09:00:00 15.2 10 Este 30 Nordeste 0 -- -- 75
2019-09-02 08:00:00 14.7 7 Noroeste 30 Noroeste 0 -- -- 76
2019-09-02 07:00:00 15.1 10 Nordeste 37 Noroeste 0 -- -- 76
2019-09-02 06:00:00 15.7 7 Sudeste 19 Sudeste 0 -- -- 77
2019-09-02 05:00:00 16.5 9 Noroeste 24 Norte 0 -- -- 76
2019-09-02 04:00:00 17 6 Sur 43 Oeste 0 -- -- 73
2019-09-02 03:00:00 17.1 15 Oeste 42 Oeste 0 -- -- 74
2019-09-02 02:00:00 16.8 4 Sudoeste 41 Noroeste 0 -- -- 81
2019-09-02 01:00:00 17.4 18 Noroeste 41 Noroeste 1.2 -- -- 83
2019-09-02 00:00:00 18.3 6 Sur 62 Oeste 1.2 -- -- 86
2019-09-01 23:00:00 19.4 25 Oeste 46 Oeste 0 -- -- 72
2019-09-01 22:00:00 20.8 10 Sudoeste 22 Este 0 -- -- 75
2019-09-01 21:00:00 21.4 0 Calma 7 Sur 0 -- -- 66
2019-09-01 20:00:00 21.7 6 Oeste 18 Este 0.4 -- -- 71
2019-09-01 19:00:00 23.2 6 Sudoeste 28 Sudoeste 0 -- -- 60
2019-09-01 18:00:00 26.1 9 Este 19 Sudeste 0 -- -- 46
2019-09-01 17:00:00 26.9 9 Este 27 Este 0 -- -- 44
2019-09-01 16:00:00 28 14 Este 35 Este 0 -- -- 43
2019-09-01 15:00:00 28.3 14 Este 30 Este 0 -- -- 44
2019-09-01 14:00:00 27.1 6 Este 28 Este 0 -- -- 46
2019-09-01 13:00:00 26.9 10 Noroeste 22 Este 0 -- -- 46
2019-09-01 12:00:00 26.5 9 Este 29 Este 0 -- -- 46
2019-09-01 11:00:00 25.2 6 Este 16 Norte 0 -- -- 47
2019-09-01 10:00:00 23.5 3 Este 9 Este 0 -- -- 50
2019-09-01 09:00:00 21.2 2 Sur 5 Sur 0 -- -- 56
2019-09-01 08:00:00 19.6 3 Sur 5 Oeste 0 -- -- 58
2019-09-01 07:00:00 20.3 4 Noroeste 12 Noroeste 0 -- -- 56
2019-09-01 06:00:00 21.5 4 Noroeste 13 Norte 0 -- -- 52
2019-09-01 05:00:00 22.3 5 Norte 17 Nordeste 0 -- -- 48
2019-09-01 04:00:00 21.1 6 Este 9 Este 0 -- -- 50
2019-09-01 03:00:00 21.3 5 Este 10 Este 0 -- -- 50
2019-09-01 02:00:00 21.9 2 Sudeste 10 Este 0 -- -- 48
2019-09-01 01:00:00 23 4 Este 7 Sudeste 0 -- -- 46
2019-09-01 00:00:00 23.7 4 Sudeste 8 Sur 0 -- -- 44
2019-08-31 23:00:00 24.7 5 Sudeste 8 Sudeste 0 -- -- 42
2019-08-31 22:00:00 25.9 4 Sudeste 8 Sudoeste 0 -- -- 39
2019-08-31 21:00:00 26.8 4 Sur 17 Sudeste 0 -- -- 37
2019-08-31 20:00:00 29.1 10 Este 15 Este 0 -- -- 31
2019-08-31 19:00:00 30.6 5 Sudoeste 19 Este 0 -- -- 31
2019-08-31 18:00:00 31.6 9 Este 26 Este 0 -- -- 30
2019-08-31 17:00:00 32.5 10 Este 26 Este 0 -- -- 32
2019-08-31 16:00:00 33.6 8 Noroeste 31 Este 0 -- -- 21
2019-08-31 15:00:00 33 5 Noroeste 19 Este 0 -- -- 23
2019-08-31 14:00:00 32.5 9 Sur 27 Nordeste 0 -- -- 26
2019-08-31 13:00:00 31.3 8 Sudeste 15 Este 0 -- -- 31
2019-08-31 12:00:00 29.3 6 Sudeste 12 Sudeste 0 -- -- 34
2019-08-31 11:00:00 26.4 4 Sur 8 Sur 0 -- -- 40
2019-08-31 10:00:00 23.1 5 Este 9 Este 0 -- -- 49
2019-08-31 09:00:00 20.1 4 Este 8 Este 0 -- -- 57
2019-08-31 08:00:00 18.1 3 Este 7 Este 0 -- -- 62
2019-08-31 07:00:00 18.5 5 Este 11 Este 0 -- -- 60
2019-08-31 06:00:00 18.8 8 Este 15 Nordeste 0 -- -- 60
2019-08-31 05:00:00 19.4 8 Este 11 Este 0 -- -- 59
2019-08-31 04:00:00 20 7 Este 9 Este 0 -- -- 58
2019-08-31 03:00:00 21 5 Sudeste 10 Sudeste 0 -- -- 55
2019-08-31 02:00:00 22.1 4 Sudeste 9 Sudeste 0 -- -- 53
2019-08-31 01:00:00 22.8 4 Sudeste 7 Sudeste 0 -- -- 52
2019-08-31 00:00:00 23.3 3 Sur 10 Sur 0 -- -- 52
2019-08-30 23:00:00 24.1 5 Sudoeste 11 Sur 0 -- -- 52
2019-08-30 22:00:00 24.6 3 Sudeste 15 Sudeste 0 -- -- 54
2019-08-30 21:00:00 25.8 9 Sudeste 15 Sudeste 0 -- -- 50
2019-08-30 20:00:00 27.5 5 Sudeste 20 Este 0 -- -- 46
2019-08-30 19:00:00 28.7 10 Sudeste 33 Este 0 -- -- 45
2019-08-30 18:00:00 30.3 15 Este 26 Sudeste 0 -- -- 40
2019-08-30 17:00:00 30.1 11 Este 34 Este 0 -- -- 37
2019-08-30 16:00:00 32.1 8 Sudeste 39 Este 0 -- -- 31
2019-08-30 15:00:00 31.8 14 Este 32 Este 0 -- -- 32
2019-08-30 14:00:00 31.4 10 Este 24 Nordeste 0 -- -- 32
2019-08-30 13:00:00 30.6 6 Sudeste 18 Este 0 -- -- 31
2019-08-30 12:00:00 28.6 4 Nordeste 10 Este 0 -- -- 40
2019-08-30 11:00:00 26.5 4 Sudeste 10 Este 0 -- -- 45
2019-08-30 10:00:00 23 0 Calma 7 Este 0 -- -- 56
2019-08-30 09:00:00 20.1 4 Este 8 Este 0 -- -- 63
2019-08-30 08:00:00 18.3 4 Este 9 Este 0 -- -- 70
2019-08-30 07:00:00 18.6 5 Este 8 Este 0 -- -- 68
2019-08-30 06:00:00 19.3 5 Este 7 Este 0 -- -- 66
2019-08-30 05:00:00 19.8 6 Este 9 Nordeste 0 -- -- 64
2019-08-30 04:00:00 20.5 7 Este 10 Este 0 -- -- 62
2019-08-30 03:00:00 20.8 4 Este 12 Este 0 -- -- 61
2019-08-30 02:00:00 21.3 3 Este 10 Este 0 -- -- 60
2019-08-30 01:00:00 22 4 Sudeste 7 Este 0 -- -- 60
2019-08-30 00:00:00 22.7 3 Sur 6 Sur 0 -- -- 59
2019-08-29 23:00:00 23.9 2 Sur 10 Este 0 -- -- 57
2019-08-29 22:00:00 24.8 4 Este 10 Sudeste 0 -- -- 55
2019-08-29 21:00:00 26.5 5 Este 10 Este 0 -- -- 48
2019-08-29 20:00:00 28 7 Este 14 Este 0 -- -- 44
2019-08-29 19:00:00 29.7 9 Este 15 Este 0 -- -- 37
2019-08-29 18:00:00 30.5 5 Oeste 29 Este 0 -- -- 30
2019-08-29 17:00:00 30.6 10 Este 27 Este 0 -- -- 31
2019-08-29 16:00:00 30 10 Este 35 Este 0 -- -- 35
2019-08-29 15:00:00 30.3 8 Este 26 Nordeste 0 -- -- 36
2019-08-29 14:00:00 29.3 7 Este 22 Este 0 -- -- 38
2019-08-29 13:00:00 28.1 8 Este 30 Este 0 -- -- 40
2019-08-29 12:00:00 27.5 11 Este 20 Nordeste 0 -- -- 44
2019-08-29 11:00:00 25.4 6 Este 12 Este 0 -- -- 52
2019-08-29 10:00:00 22.6 5 Este 8 Este 0 -- -- 60
2019-08-29 09:00:00 20.2 4 Este 8 Nordeste 0 -- -- 68
2019-08-29 08:00:00 18.3 4 Este 6 Nordeste 0 -- -- 74
2019-08-29 07:00:00 18.3 4 Este 9 Este 0 -- -- 74
2019-08-29 06:00:00 18.3 5 Este 12 Este 0 -- -- 74
2019-08-29 05:00:00 18.6 5 Este 10 Este 0 -- -- 73
2019-08-29 04:00:00 18.9 6 Este 9 Este 0 -- -- 73
2019-08-29 03:00:00 19.6 5 Este 9 Sudeste 0 -- -- 71
2019-08-29 02:00:00 20 6 Este 9 Este 0 -- -- 71
2019-08-29 01:00:00 21 2 Sur 6 Sur 0 -- -- 70
2019-08-29 00:00:00 22 5 Sudoeste 7 Sudoeste 0 -- -- 68
2019-08-28 23:00:00 23 4 Sudeste 8 Sudeste 0 -- -- 65
2019-08-28 22:00:00 23.9 5 Sudeste 9 Este 0 -- -- 61
2019-08-28 21:00:00 25.7 4 Nordeste 18 Nordeste 0 -- -- 42
2019-08-28 20:00:00 26.9 7 Este 22 Este 0 -- -- 39
2019-08-28 19:00:00 28 6 Este 22 Este 0 -- -- 38
2019-08-28 18:00:00 28.8 11 Este 24 Este 0 -- -- 36
2019-08-28 17:00:00 28.7 13 Este 33 Este 0 -- -- 37
2019-08-28 16:00:00 28.8 10 Este 35 Este 0 -- -- 38
2019-08-28 15:00:00 28.2 9 Sudeste 27 Este 0 -- -- 39
2019-08-28 14:00:00 27 12 Este 28 Nordeste 0 -- -- 42
2019-08-28 13:00:00 25.7 11 Este 22 Este 0 -- -- 47
2019-08-28 12:00:00 24.1 11 Nordeste 22 Este 0 -- -- 54
2019-08-28 11:00:00 22.6 4 Este 10 Este 0 -- -- 58
2019-08-28 10:00:00 20.1 4 Este 9 Este 0 -- -- 65
2019-08-28 09:00:00 17.4 5 Nordeste 8 Este 0 -- -- 74
2019-08-28 08:00:00 15.6 4 Este 5 Este 0 -- -- 81
2019-08-28 07:00:00 15.3 2 Este 7 Este 0 -- -- 82
2019-08-28 06:00:00 15.6 4 Este 6 Este 0 -- -- 81
2019-08-28 05:00:00 16 3 Este 5 Este 0 -- -- 80
2019-08-28 04:00:00 16.8 2 Nordeste 7 Este 0 -- -- 76
2019-08-28 03:00:00 16.9 0 Calma 9 Este 0 -- -- 76
2019-08-28 02:00:00 17.8 2 Sudeste 6 Este 0 -- -- 73
2019-08-28 01:00:00 18.6 3 Norte 5 Noroeste 0 -- -- 73
2019-08-28 00:00:00 19.1 0 Calma 7 Sudeste 0 -- -- 68
2019-08-27 23:00:00 20 4 Este 14 Oeste 0 -- -- 64
2019-08-27 22:00:00 20.5 3 Sudeste 10 Sudoeste 0 -- -- 64
2019-08-27 21:00:00 20.9 5 Sur 16 Sur 0 -- -- 67
2019-08-27 20:00:00 22.4 12 Sur 21 Sur 0 -- -- 65
2019-08-27 19:00:00 23.5 12 Este 38 Este 0 -- -- 58
2019-08-27 18:00:00 24.9 6 Nordeste 24 Nordeste 0 -- -- 49
2019-08-27 17:00:00 24.5 7 Este 21 Este 0 -- -- 50
2019-08-27 16:00:00 23.6 6 Este 17 Este 0 -- -- 53
2019-08-27 15:00:00 22.2 10 Este 26 Este 0 -- -- 58
2019-08-27 14:00:00 22.3 13 Este 26 Este 0 -- -- 62
2019-08-27 13:00:00 21.4 9 Sudeste 23 Este 0 -- -- 68
2019-08-27 12:00:00 21.3 13 Este 21 Este 0 -- -- 71
2019-08-27 11:00:00 20.4 7 Este 17 Este 0 -- -- 71
2019-08-27 10:00:00 18 6 Nordeste 14 Este 0 -- -- 75
2019-08-27 09:00:00 16.1 2 Sudeste 6 Sudoeste 0 -- -- 79
2019-08-27 08:00:00 14.8 4 Sudoeste 17 Sudoeste 0 -- -- 82
2019-08-27 07:00:00 14.4 10 Oeste 25 Noroeste 0 -- -- 87
2019-08-27 06:00:00 15.7 24 Noroeste 44 Sudoeste 2 -- -- 76
2019-08-27 05:00:00 16.9 14 Sur 32 Sudoeste 1.6 -- -- 79
2019-08-27 04:00:00 18.5 17 Noroeste 25 Oeste 0 -- -- 65
2019-08-27 03:00:00 19.3 2 Oeste 26 Sur 0.6 -- -- 72
2019-08-27 02:00:00 21.9 20 Sur 34 Sur 0 -- -- 50
2019-08-27 01:00:00 21.7 15 Sur 26 Sur 0 -- -- 44
2019-08-27 00:00:00 22 15 Sudoeste 29 Sudoeste 0 -- -- 45
2019-08-26 23:00:00 21.5 16 Sur 33 Sur 0 -- -- 59
2019-08-26 22:00:00 21.7 22 Sur 36 Sur 0 -- -- 63
2019-08-26 21:00:00 22.5 19 Sur 31 Sur 0 -- -- 57
2019-08-26 20:00:00 24 15 Sudeste 33 Sudeste 0 -- -- 50
2019-08-26 19:00:00 25.5 16 Sudeste 43 Este 0 -- -- 47
2019-08-26 18:00:00 26.5 18 Sudeste 35 Sudeste 0 -- -- 43
2019-08-26 17:00:00 26.6 19 Este 32 Este 0 -- -- 44
2019-08-26 16:00:00 27.2 9 Sudeste 23 Sudeste 0 -- -- 44
2019-08-26 15:00:00 26 13 Sudeste 33 Sudeste 0 -- -- 47
2019-08-26 14:00:00 24.9 16 Este 35 Este 0 -- -- 47
2019-08-26 13:00:00 25.1 10 Sudeste 37 Sur 0 -- -- 46
2019-08-26 12:00:00 26.5 17 Sur 32 Sudeste 0 -- -- 42
2019-08-26 11:00:00 25.2 7 Sudeste 19 Nordeste 0 -- -- 48
2019-08-26 10:00:00 22.3 7 Este 13 Este 0 -- -- 53
2019-08-26 09:00:00 18.7 0 Calma 6 Este 0 -- -- 56
2019-08-26 08:00:00 17.4 3 Sudoeste 4 Sudeste 0 -- -- 57
2019-08-26 07:00:00 17.9 3 Sudeste 6 Oeste 0 -- -- 59
2019-08-26 06:00:00 18.1 4 Sudoeste 9 Sudoeste 0 -- -- 56
2019-08-26 05:00:00 18.3 5 Sudoeste 9 Sudoeste 0 -- -- 53
2019-08-26 04:00:00 18.8 3 Sur 10 Sur 0 -- -- 49
2019-08-26 03:00:00 19.8 4 Sudeste 12 Este 0 -- -- 46
2019-08-26 02:00:00 19.6 3 Este 11 Sur 0 -- -- 50
2019-08-26 01:00:00 21.1 4 Sur 15 Sudoeste 0 -- -- 43
2019-08-26 00:00:00 22.2 12 Sudoeste 23 Sudoeste 0 -- -- 42
2019-08-25 23:00:00 22.7 9 Sur 26 Sudoeste 0 -- -- 47
2019-08-25 22:00:00 23.6 11 Sur 22 Sudeste 0 -- -- 47
2019-08-25 21:00:00 24.8 11 Sudeste 27 Sudeste 0 -- -- 41
2019-08-25 20:00:00 26.7 14 Este 33 Sudeste 0 -- -- 40
2019-08-25 19:00:00 28.7 12 Sudeste 31 Sur 0 -- -- 33
2019-08-25 18:00:00 29.9 15 Sudeste 31 Sudeste 0 -- -- 32
2019-08-25 17:00:00 30.6 20 Este 38 Este 0 -- -- 31
2019-08-25 16:00:00 31.2 14 Este 28 Este 0 -- -- 27
2019-08-25 15:00:00 31.7 14 Sudeste 28 Sudeste 0 -- -- 23
2019-08-25 14:00:00 31.4 12 Sudeste 31 Este 0 -- -- 22
2019-08-25 13:00:00 30.4 10 Sudeste 28 Este 0 -- -- 25
2019-08-25 12:00:00 28.1 7 Sur 15 Sur 0 -- -- 29
2019-08-25 11:00:00 25.1 4 Sur 9 Sur 0 -- -- 32
2019-08-25 10:00:00 22.6 2 Sur 6 Este 0 -- -- 42
2019-08-25 09:00:00 19.7 0 Calma 8 Este 0 -- -- 47
2019-08-25 08:00:00 17.8 6 Nordeste 10 Nordeste 0 -- -- 53
2019-08-25 07:00:00 17.2 4 Este 8 Este 0 -- -- 57
2019-08-25 06:00:00 17.2 6 Sur 10 Sudeste 0 -- -- 59
2019-08-25 05:00:00 17.7 4 Este 9 Sur 0 -- -- 62
2019-08-25 04:00:00 18.3 4 Sur 9 Sur 0 -- -- 64
2019-08-25 03:00:00 19.6 5 Sudeste 10 Sudeste 0 -- -- 62
2019-08-25 02:00:00 20.6 4 Sudeste 8 Sur 0 -- -- 58
2019-08-25 01:00:00 21.8 5 Sur 9 Sudoeste 0 -- -- 54
2019-08-25 00:00:00 22.4 7 Sur 10 Sudoeste 0 -- -- 54
2019-08-24 23:00:00 23.4 6 Sudeste 13 Sur 0 -- -- 51
2019-08-24 22:00:00 24 7 Sur 15 Sur 0 -- -- 50
2019-08-24 21:00:00 25.1 8 Sudeste 17 Sudeste 0 -- -- 45
2019-08-24 20:00:00 26.9 9 Sudeste 27 Este 0 -- -- 46
2019-08-24 19:00:00 28.6 10 Sudeste 31 Nordeste 0 -- -- 43
2019-08-24 18:00:00 31.5 6 Este 27 Este 0 -- -- 24
2019-08-24 17:00:00 31.6 17 Este 27 Nordeste 0 -- -- 22
2019-08-24 16:00:00 31.3 10 Este 28 Este 0 -- -- 23
2019-08-24 15:00:00 31.1 8 Nordeste 29 Este 0 -- -- 24
2019-08-24 14:00:00 30.7 10 Este 29 Este 0 -- -- 33
2019-08-24 13:00:00 29.3 9 Sudeste 20 Este 0 -- -- 33
2019-08-24 12:00:00 27.4 7 Sudoeste 15 Sudoeste 0 -- -- 37
2019-08-24 11:00:00 25.1 4 Sudeste 6 Sur 0 -- -- 41
2019-08-24 10:00:00 21.9 3 Este 8 Nordeste 0 -- -- 52
2019-08-24 09:00:00 18.5 4 Este 9 Este 0 -- -- 60
2019-08-24 08:00:00 16.3 7 Este 10 Este 0 -- -- 68
2019-08-24 07:00:00 16.5 6 Este 9 Este 0 -- -- 68
2019-08-24 06:00:00 16.9 7 Este 10 Este 0 -- -- 68
2019-08-24 05:00:00 17.5 8 Este 12 Este 0 -- -- 67
2019-08-24 04:00:00 18.2 4 Sudeste 11 Este 0 -- -- 66
2019-08-24 03:00:00 18.9 3 Sudeste 9 Sudeste 0 -- -- 64
2019-08-24 02:00:00 19.9 4 Sudeste 8 Sudeste 0 -- -- 62
2019-08-24 01:00:00 20.9 4 Sudeste 11 Sudoeste 0 -- -- 59
2019-08-24 00:00:00 21.8 7 Sur 11 Sur 0 -- -- 55
2019-08-23 23:00:00 22.3 6 Sudeste 15 Sur 0 -- -- 55
2019-08-23 22:00:00 22.8 6 Sudoeste 20 Sudeste 0 -- -- 59
2019-08-23 21:00:00 23.9 6 Sudeste 25 Este 0 -- -- 56
2019-08-23 20:00:00 25.9 9 Sudeste 31 Sudeste 0 -- -- 51
2019-08-23 19:00:00 28.1 11 Sudeste 29 Este 0 -- -- 42
2019-08-23 18:00:00 29.9 15 Este 33 Este 0 -- -- 33
2019-08-23 17:00:00 30.1 14 Este 34 Este 0 -- -- 32
2019-08-23 16:00:00 30.5 15 Este 29 Este 0 -- -- 30
2019-08-23 15:00:00 29.6 12 Oeste 22 Noroeste 0 -- -- 26
2019-08-23 14:00:00 28.7 7 Sudeste 21 Este 0 -- -- 30
2019-08-23 13:00:00 27.9 7 Nordeste 21 Este 0 -- -- 32
2019-08-23 12:00:00 26.1 6 Este 12 Este 0 -- -- 36
2019-08-23 11:00:00 23.5 3 Este 8 Nordeste 0 -- -- 55
2019-08-23 10:00:00 20.7 3 Sudeste 8 Este 0 -- -- 66
2019-08-23 09:00:00 18.3 4 Este 8 Este 0 -- -- 77
2019-08-23 08:00:00 16.2 5 Este 8 Este 0 -- -- 82
2019-08-23 07:00:00 15.9 4 Este 10 Este 0 -- -- 85
2019-08-23 06:00:00 16.6 6 Este 8 Este 0 -- -- 83
2019-08-23 05:00:00 17.4 3 Este 6 Este 0 -- -- 81
2019-08-23 04:00:00 17.7 3 Sudoeste 9 Sudeste 0 -- -- 81
2019-08-23 03:00:00 18.3 3 Sur 8 Sudeste 0 -- -- 80
2019-08-23 02:00:00 19 3 Sur 8 Sur 0 -- -- 78
2019-08-23 01:00:00 20.1 3 Sudoeste 6 Sudoeste 0 -- -- 73
2019-08-23 00:00:00 21 4 Sudoeste 6 Este 0 -- -- 69